Time;durP1;ratioP1;P1;durP2;ratioP2;P2;SDS_P1;SDS_P2;PMS_P1;PMS_P2;Temp;Humidity;BMP_temperature;BMP_pressure;BME280_temperature;BME280_humidity;BME280_pressure;Samples;Min_cycle;Max_cycle;Signal;HPM_P1;HPM_P2
2022/08/14 00:00:22;;;;;;;9.10;8.20;;;16.20;70.70;;;;;;4996706;28;20890;-70
2022/08/14 00:02:49;;;;;;;12.43;5.47;;;16.20;70.00;;;;;;4996944;28;20478;-69
2022/08/14 00:05:18;;;;;;;7.43;6.50;;;16.20;70.40;;;;;;4996421;28;20474;-70
2022/08/14 00:07:48;;;;;;;5.60;5.10;;;16.20;69.80;;;;;;4990873;28;20482;-69
2022/08/14 00:10:18;;;;;;;15.73;7.20;;;16.00;70.70;;;;;;4994089;28;21170;-70
2022/08/14 00:12:48;;;;;;;6.97;6.27;;;15.30;72.60;;;;;;4984670;28;20557;-69
2022/08/14 00:15:17;;;;;;;6.50;5.77;;;15.30;73.00;;;;;;4992702;28;20513;-70
2022/08/14 00:17:45;;;;;;;6.47;5.87;;;15.20;72.80;;;;;;4979559;28;20461;-70
2022/08/14 00:20:12;;;;;;;5.50;4.93;;;15.20;73.50;;;;;;4991521;28;20862;-70
2022/08/14 00:22:39;;;;;;;6.53;5.27;;;15.30;73.60;;;;;;4995613;28;20481;-69
2022/08/14 00:25:09;;;;;;;6.30;5.17;;;15.30;73.70;;;;;;4995537;28;20481;-68
2022/08/14 00:27:36;;;;;;;13.90;6.70;;;15.30;73.60;;;;;;4992839;28;20493;-69
2022/08/14 00:30:07;;;;;;;7.47;4.63;;;15.40;73.30;;;;;;4996486;28;20489;-70
2022/08/14 00:32:33;;;;;;;5.43;4.93;;;15.40;73.40;;;;;;4994540;28;20478;-69
2022/08/14 00:35:00;;;;;;;6.40;5.80;;;15.40;72.50;;;;;;4994529;28;20479;-70
2022/08/14 00:37:28;;;;;;;16.73;7.37;;;15.60;72.50;;;;;;4991405;28;20513;-69
2022/08/14 00:39:54;;;;;;;9.70;6.50;;;15.70;72.20;;;;;;4997660;28;20905;-69
2022/08/14 00:42:24;;;;;;;9.97;8.13;;;15.60;73.30;;;;;;4994123;28;20481;-69
2022/08/14 00:44:52;;;;;;;11.13;5.83;;;15.50;73.40;;;;;;4995337;28;20869;-70
2022/08/14 00:47:20;;;;;;;13.40;8.57;;;15.40;73.20;;;;;;4990784;28;20478;-70
2022/08/14 00:49:47;;;;;;;6.70;6.10;;;15.40;73.10;;;;;;4996244;28;20474;-69
2022/08/14 00:52:16;;;;;;;14.10;7.00;;;15.30;73.80;;;;;;4994864;28;20470;-69
2022/08/14 00:54:44;;;;;;;9.33;6.53;;;15.20;73.50;;;;;;4994061;28;20481;-70
2022/08/14 00:57:11;;;;;;;8.10;5.40;;;15.30;73.30;;;;;;4988992;28;20496;-70
2022/08/14 00:59:40;;;;;;;8.70;5.40;;;15.30;73.00;;;;;;4994328;28;20489;-70
2022/08/14 01:02:07;;;;;;;6.50;5.90;;;15.40;72.60;;;;;;4992943;28;20520;-70
2022/08/14 01:04:35;;;;;;;6.53;5.93;;;;;;;;;;4994622;28;20485;-69
2022/08/14 01:07:02;;;;;;;7.23;6.63;;;15.30;73.50;;;;;;4989837;28;20879;-69
2022/08/14 01:09:30;;;;;;;7.90;7.10;;;15.20;74.00;;;;;;4991381;28;20477;-70
2022/08/14 01:11:58;;;;;;;7.40;6.70;;;15.00;75.80;;;;;;4994378;28;20477;-70
2022/08/14 01:14:24;;;;;;;9.00;8.20;;;15.00;75.00;;;;;;4984765;28;21152;-70
2022/08/14 01:16:53;;;;;;;8.47;7.57;;;15.10;74.70;;;;;;5020515;28;21046;-70
2022/08/14 01:22:06;;;;;;;5.67;5.13;;;15.10;73.80;;;;;;4994189;28;20509;-70
2022/08/14 01:24:35;;;;;;;6.17;5.60;;;15.10;73.60;;;;;;4992718;28;20643;-70
2022/08/14 01:27:04;;;;;;;6.73;6.03;;;15.00;74.10;;;;;;4991866;28;20486;-70
2022/08/14 01:29:36;;;;;;;8.30;7.50;;;15.00;73.70;;;;;;4994387;28;20602;-69
2022/08/14 01:32:04;;;;;;;15.30;5.40;;;14.80;75.10;;;;;;4997745;28;20710;-70
2022/08/14 01:34:31;;;;;;;10.00;7.50;;;14.70;74.80;;;;;;4995313;28;20520;-70
2022/08/14 01:36:59;;;;;;;8.20;7.40;;;14.70;73.80;;;;;;4994215;28;20496;-70
2022/08/14 01:39:28;;;;;;;19.60;7.60;;;14.80;74.30;;;;;;4996786;28;20963;-70
2022/08/14 01:41:57;;;;;;;6.80;6.20;;;14.80;74.70;;;;;;5001370;28;20477;-70
2022/08/14 01:44:30;;;;;;;8.00;7.13;;;14.80;74.70;;;;;;5000621;28;20493;-70
2022/08/14 01:46:58;;;;;;;7.27;6.57;;;14.80;73.90;;;;;;4995915;28;20476;-70
2022/08/14 01:49:26;;;;;;;8.80;7.53;;;14.80;74.20;;;;;;4997748;28;20861;-69
2022/08/14 01:51:55;;;;;;;8.27;7.37;;;14.70;73.70;;;;;;4999258;28;21433;-70
2022/08/14 01:54:24;;;;;;;10.03;8.53;;;14.70;74.40;;;;;;4998859;28;20510;-70
2022/08/14 01:56:55;;;;;;;8.60;7.70;;;14.70;74.80;;;;;;4995309;28;21144;-70
2022/08/14 01:59:27;;;;;;;17.63;8.10;;;14.70;74.70;;;;;;4988811;28;20627;-69
2022/08/14 02:01:57;;;;;;;6.00;5.43;;;14.70;75.00;;;;;;4997219;28;20484;-70
2022/08/14 02:04:25;;;;;;;12.70;10.67;;;;;;;;;;4998364;28;20479;-69
2022/08/14 02:06:52;;;;;;;7.60;6.90;;;14.50;75.10;;;;;;5011606;28;20480;-69
2022/08/14 02:09:20;;;;;;;9.47;8.47;;;14.30;75.70;;;;;;5007096;28;20504;-68
2022/08/14 02:11:47;;;;;;;7.67;6.60;;;14.00;76.90;;;;;;4995411;28;20481;-68
2022/08/14 02:14:16;;;;;;;5.27;4.87;;;13.90;76.60;;;;;;5008541;28;20493;-68
2022/08/14 02:16:47;;;;;;;7.60;6.87;;;13.90;76.40;;;;;;5005379;28;20985;-68
2022/08/14 02:19:16;;;;;;;27.43;6.80;;;13.90;76.50;;;;;;5004662;28;20473;-68
2022/08/14 02:21:44;;;;;;;6.90;6.10;;;13.90;77.60;;;;;;5014645;28;20500;-68
2022/08/14 02:24:12;;;;;;;5.73;5.17;;;13.90;76.80;;;;;;5001888;28;20477;-68
2022/08/14 02:26:41;;;;;;;10.63;5.47;;;13.90;76.10;;;;;;5011396;28;20500;-69
2022/08/14 02:29:11;;;;;;;6.33;5.73;;;13.90;76.90;;;;;;5007728;28;20486;-69
2022/08/14 02:31:41;;;;;;;8.10;7.30;;;14.00;76.50;;;;;;5005873;28;20478;-68
2022/08/14 02:34:10;;;;;;;6.10;4.70;;;14.00;76.00;;;;;;5001738;28;20604;-68
2022/08/14 02:36:37;;;;;;;7.17;6.53;;;14.10;76.30;;;;;;5016394;28;20484;-68
2022/08/14 02:39:07;;;;;;;5.93;5.33;;;14.00;76.10;;;;;;5003404;28;20535;-68
2022/08/14 02:41:34;;;;;;;5.97;5.47;;;14.00;76.60;;;;;;4995234;28;20482;-68
2022/08/14 02:44:02;;;;;;;6.30;4.73;;;14.00;76.40;;;;;;4993153;28;20475;-68
2022/08/14 02:46:30;;;;;;;9.97;8.97;;;14.00;75.80;;;;;;4997244;28;20488;-68
2022/08/14 02:48:58;;;;;;;5.97;5.40;;;14.00;75.70;;;;;;4994032;28;20490;-68
2022/08/14 02:51:28;;;;;;;8.00;7.20;;;14.00;75.80;;;;;;5007645;28;20490;-67
2022/08/14 02:53:57;;;;;;;33.63;6.83;;;13.90;76.40;;;;;;4998282;28;20596;-70
2022/08/14 02:56:24;;;;;;;8.67;7.77;;;13.90;76.40;;;;;;5013568;28;20489;-67
2022/08/14 02:58:52;;;;;;;6.23;5.60;;;13.80;76.70;;;;;;4999426;28;20489;-67
2022/08/14 03:01:21;;;;;;;17.23;7.63;;;13.70;76.10;;;;;;5002907;28;20525;-68
2022/08/14 03:03:49;;;;;;;6.83;6.13;;;13.70;76.20;;;;;;5014596;28;20477;-68
2022/08/14 03:06:21;;;;;;;6.53;5.63;;;13.60;76.90;;;;;;5003738;28;20562;-68
2022/08/14 03:08:48;;;;;;;6.60;5.07;;;13.60;76.60;;;;;;5019460;28;20468;-68
2022/08/14 03:11:15;;;;;;;8.83;7.80;;;13.60;77.20;;;;;;5003170;28;20480;-69
2022/08/14 03:13:46;;;;;;;8.60;6.73;;;13.60;76.90;;;;;;5005093;28;20974;-68
2022/08/14 03:16:19;;;;;;;7.03;6.30;;;13.70;76.70;;;;;;5019750;28;21079;-69
2022/08/14 03:18:47;;;;;;;11.53;6.33;;;13.70;77.20;;;;;;5001284;28;26027;-68
2022/08/14 03:21:19;;;;;;;12.97;6.73;;;13.70;76.90;;;;;;5002699;28;20500;-68
2022/08/14 03:23:49;;;;;;;6.50;5.80;;;13.80;77.10;;;;;;5008498;28;21346;-69
2022/08/14 03:26:19;;;;;;;9.87;7.63;;;13.80;76.60;;;;;;5006126;28;20831;-68
2022/08/14 03:28:48;;;;;;;7.47;6.77;;;13.70;77.20;;;;;;5006025;28;20474;-68
2022/08/14 03:31:22;;;;;;;8.43;7.60;;;13.50;77.90;;;;;;5003312;28;20489;-68
2022/08/14 03:33:50;;;;;;;25.33;7.03;;;13.50;77.50;;;;;;4997728;28;20520;-68
2022/08/14 03:36:21;;;;;;;10.00;8.93;;;13.50;77.30;;;;;;4997861;28;20474;-68
2022/08/14 03:38:51;;;;;;;6.47;5.87;;;13.40;78.00;;;;;;5009327;28;20484;-68
2022/08/14 03:41:20;;;;;;;21.87;8.73;;;13.50;77.40;;;;;;4998869;28;20474;-68
2022/08/14 03:43:49;;;;;;;6.07;5.43;;;13.50;77.40;;;;;;5003933;28;20473;-69
2022/08/14 03:46:17;;;;;;;8.57;7.67;;;13.50;76.90;;;;;;4998453;28;20492;-68
2022/08/14 03:48:45;;;;;;;7.90;6.43;;;13.50;76.90;;;;;;5004469;28;20477;-68
2022/08/14 03:51:12;;;;;;;9.30;6.73;;;13.50;77.20;;;;;;5016799;28;20936;-68
2022/08/14 03:53:43;;;;;;;6.53;5.93;;;13.40;77.00;;;;;;5017612;28;21207;-68
2022/08/14 03:56:13;;;;;;;7.03;6.23;;;13.30;77.90;;;;;;5000300;28;20474;-68
2022/08/14 03:58:42;;;;;;;8.53;6.40;;;13.30;78.00;;;;;;5010645;28;20492;-68
2022/08/14 04:01:09;;;;;;;18.57;6.70;;;13.30;77.60;;;;;;5011810;28;20905;-69
2022/08/14 04:03:36;;;;;;;7.17;6.27;;;13.30;77.60;;;;;;5013116;28;20488;-69
2022/08/14 04:06:03;;;;;;;8.93;6.30;;;13.30;77.10;;;;;;5001252;28;21132;-68
2022/08/14 04:08:30;;;;;;;16.37;7.20;;;13.40;76.40;;;;;;5014898;28;21212;-67
2022/08/14 04:10:59;;;;;;;7.00;6.30;;;13.40;77.50;;;;;;5017477;28;20817;-68
2022/08/14 04:13:26;;;;;;;11.17;8.73;;;13.40;77.60;;;;;;5005765;28;21138;-68
2022/08/14 04:15:53;;;;;;;18.83;6.83;;;13.30;78.30;;;;;;4999722;28;20493;-68
2022/08/14 04:18:20;;;;;;;13.30;10.37;;;13.10;78.70;;;;;;4996789;28;20612;-68
2022/08/14 04:20:46;;;;;;;6.97;6.20;;;13.10;78.40;;;;;;5014673;28;20907;-68
2022/08/14 04:23:13;;;;;;;19.63;6.37;;;13.00;78.20;;;;;;5011047;28;21035;-67
2022/08/14 04:25:40;;;;;;;9.80;6.83;;;12.90;78.60;;;;;;4998537;28;21125;-67
2022/08/14 04:28:10;;;;;;;6.87;6.10;;;12.90;78.70;;;;;;5002522;28;20499;-68
2022/08/14 04:30:38;;;;;;;17.40;6.63;;;12.90;78.20;;;;;;5013340;28;20968;-68
2022/08/14 04:33:07;;;;;;;9.50;6.40;;;12.90;78.60;;;;;;4999077;28;20885;-68
2022/08/14 04:35:34;;;;;;;6.40;5.80;;;13.00;78.60;;;;;;4997721;28;20486;-68
2022/08/14 04:43:37;;;;;;;10.70;8.13;;;12.90;78.70;;;;;;4972473;28;20485;-68
2022/08/14 04:46:04;;;;;;;6.30;5.70;;;12.90;78.90;;;;;;4990299;28;21045;-68
2022/08/14 04:48:29;;;;;;;16.23;5.80;;;13.00;78.60;;;;;;4989613;28;20474;-67
2022/08/14 04:50:56;;;;;;;7.13;6.20;;;13.10;78.80;;;;;;4998685;28;21022;-69
2022/08/14 04:53:25;;;;;;;9.57;8.60;;;;;;;;;;4997560;28;20242;-68
2022/08/14 04:55:52;;;;;;;20.13;6.80;;;13.20;78.60;;;;;;5011818;28;20500;-68
2022/08/14 04:58:21;;;;;;;11.47;9.53;;;13.20;78.70;;;;;;5011927;28;20485;-68
2022/08/14 05:00:50;;;;;;;8.10;7.30;;;13.30;78.20;;;;;;5009007;28;21307;-68
2022/08/14 05:03:19;;;;;;;8.97;7.57;;;13.40;78.10;;;;;;5020218;28;20550;-68
2022/08/14 05:05:47;;;;;;;6.53;5.93;;;13.50;78.70;;;;;;5018818;28;21023;-68
2022/08/14 05:08:14;;;;;;;10.60;6.97;;;13.50;78.80;;;;;;5001276;28;20488;-68
2022/08/14 05:10:43;;;;;;;8.97;7.17;;;13.50;79.70;;;;;;5009588;28;20496;-68
2022/08/14 05:13:11;;;;;;;6.70;6.00;;;13.60;80.10;;;;;;5016494;28;20484;-68
2022/08/14 05:15:40;;;;;;;8.10;5.97;;;13.50;80.10;;;;;;5028597;28;20992;-68
2022/08/14 05:18:12;;;;;;;9.97;6.57;;;13.50;80.80;;;;;;5012622;28;20574;-68
2022/08/14 05:20:41;;;;;;;9.07;7.80;;;13.50;80.60;;;;;;5009587;28;20511;-68
2022/08/14 05:23:08;;;;;;;17.13;6.90;;;13.70;81.50;;;;;;5030893;28;20476;-68
2022/08/14 05:25:34;;;;;;;8.40;7.47;;;13.80;81.60;;;;;;5020824;28;20914;-68
2022/08/14 05:28:09;;;;;;;9.93;7.83;;;14.00;82.10;;;;;;5002206;28;21062;-68
2022/08/14 05:30:36;;;;;;;10.23;8.37;;;14.10;82.90;;;;;;4992367;28;21068;-68
2022/08/14 05:33:03;;;;;;;9.23;7.43;;;14.20;83.30;;;;;;5009867;28;20504;-68
2022/08/14 05:35:32;;;;;;;8.87;7.97;;;14.30;82.80;;;;;;5007600;28;20489;-68
2022/08/14 05:37:59;;;;;;;10.70;8.53;;;14.50;82.30;;;;;;4998297;28;20493;-68
2022/08/14 05:40:28;;;;;;;11.47;9.97;;;14.60;82.70;;;;;;5009807;28;20561;-68
2022/08/14 05:42:55;;;;;;;43.33;9.60;;;14.90;83.50;;;;;;5003695;28;21120;-68
2022/08/14 05:45:22;;;;;;;14.20;11.53;;;15.00;83.50;;;;;;5004394;28;20489;-68
2022/08/14 05:47:49;;;;;;;9.90;7.80;;;15.20;83.40;;;;;;5012347;28;20584;-68
2022/08/14 05:50:15;;;;;;;15.90;8.83;;;15.30;83.40;;;;;;5001312;28;20903;-68
2022/08/14 05:52:43;;;;;;;10.40;8.97;;;15.50;84.10;;;;;;5002273;28;20489;-68
2022/08/14 05:55:11;;;;;;;10.30;8.97;;;15.60;84.20;;;;;;5002069;28;20481;-69
2022/08/14 05:57:49;;;;;;;12.97;8.87;;;15.90;83.50;;;;;;5007954;28;20500;-69
2022/08/14 06:00:17;;;;;;;13.40;10.97;;;16.10;82.90;;;;;;5017106;28;20487;-69
2022/08/14 06:02:44;;;;;;;10.93;9.57;;;16.30;82.60;;;;;;5015728;28;20481;-68
2022/08/14 06:05:11;;;;;;;16.70;9.60;;;16.60;81.60;;;;;;5008676;28;20481;-70
2022/08/14 06:07:38;;;;;;;12.30;10.13;;;16.80;81.20;;;;;;5006501;28;20682;-69
2022/08/14 06:10:08;;;;;;;10.17;8.30;;;17.10;81.30;;;;;;5010731;28;20484;-69
2022/08/14 06:12:36;;;;;;;9.60;8.67;;;17.20;80.30;;;;;;5019672;28;20484;-70
2022/08/14 06:15:04;;;;;;;17.93;8.80;;;17.40;80.00;;;;;;5007482;28;20971;-69
2022/08/14 06:17:31;;;;;;;19.37;9.73;;;17.60;80.20;;;;;;5001019;28;20842;-70
2022/08/14 06:19:59;;;;;;;12.17;9.20;;;17.80;80.00;;;;;;5004930;28;20480;-70
2022/08/14 06:22:26;;;;;;;12.00;10.53;;;18.00;80.00;;;;;;5012614;28;20541;-70
2022/08/14 06:24:53;;;;;;;10.77;8.53;;;18.20;79.70;;;;;;5003491;28;21123;-70
2022/08/14 06:27:21;;;;;;;12.00;10.80;;;18.40;79.60;;;;;;5023461;28;20527;-69
2022/08/14 06:29:48;;;;;;;10.77;8.27;;;18.60;80.10;;;;;;5003620;28;21034;-69
2022/08/14 06:32:14;;;;;;;9.77;8.77;;;18.90;79.60;;;;;;5003711;28;20473;-69
2022/08/14 06:34:41;;;;;;;10.23;9.23;;;19.10;79.10;;;;;;5000263;28;20843;-69
2022/08/14 06:37:08;;;;;;;9.47;8.30;;;19.30;78.50;;;;;;5010429;28;21156;-68
2022/08/14 06:39:34;;;;;;;9.63;8.57;;;19.60;77.90;;;;;;5003398;28;20481;-68
2022/08/14 06:42:01;;;;;;;9.63;8.73;;;19.80;77.40;;;;;;5009130;28;20857;-68
2022/08/14 06:44:30;;;;;;;11.77;10.60;;;20.00;77.50;;;;;;5001584;28;20532;-69
2022/08/14 06:46:58;;;;;;;8.23;7.53;;;20.40;76.50;;;;;;5013799;28;20540;-69
2022/08/14 06:49:26;;;;;;;13.73;9.00;;;20.60;76.50;;;;;;5018330;28;20496;-70
2022/08/14 06:51:53;;;;;;;8.17;7.37;;;20.90;75.90;;;;;;5009805;28;20540;-68
2022/08/14 06:54:20;;;;;;;10.93;7.90;;;21.30;75.10;;;;;;5019596;28;20487;-68
2022/08/14 06:56:47;;;;;;;19.70;8.83;;;21.60;74.50;;;;;;5015807;28;20492;-68
2022/08/14 06:59:15;;;;;;;9.33;7.20;;;21.80;73.60;;;;;;5004645;28;20480;-69
2022/08/14 07:07:20;;;;;;;9.73;8.73;;;22.70;71.60;;;;;;5012292;28;20541;-69
2022/08/14 07:09:47;;;;;;;10.40;8.00;;;22.90;71.60;;;;;;5019509;28;20494;-69
2022/08/14 07:12:13;;;;;;;12.87;7.57;;;23.40;71.40;;;;;;5011007;28;20487;-69
2022/08/14 07:14:40;;;;;;;7.53;6.83;;;23.70;70.30;;;;;;5009268;28;20485;-69
2022/08/14 07:17:08;;;;;;;8.00;7.30;;;23.90;69.50;;;;;;5009986;28;20814;-69
2022/08/14 07:19:35;;;;;;;13.83;6.83;;;24.30;68.70;;;;;;5004492;28;20472;-69
2022/08/14 07:22:02;;;;;;;15.33;7.63;;;24.50;67.90;;;;;;5000681;28;20488;-68
2022/08/14 07:24:28;;;;;;;10.73;8.63;;;24.80;67.60;;;;;;5018840;28;20817;-69
2022/08/14 07:26:55;;;;;;;28.50;8.60;;;25.20;66.90;;;;;;5005205;28;20500;-69
2022/08/14 07:29:22;;;;;;;10.20;9.10;;;25.50;65.50;;;;;;5006818;28;20481;-69
2022/08/14 07:31:49;;;;;;;7.90;7.10;;;25.80;65.30;;;;;;5000538;28;20481;-69
2022/08/14 07:34:17;;;;;;;12.47;7.57;;;26.20;64.30;;;;;;4998675;28;20485;-70
2022/08/14 07:36:44;;;;;;;8.53;7.63;;;26.40;63.30;;;;;;5009641;28;20982;-69
2022/08/14 07:39:11;;;;;;;8.80;8.00;;;26.50;63.40;;;;;;4998966;28;20487;-69
2022/08/14 07:41:38;;;;;;;14.83;7.70;;;26.70;63.00;;;;;;5007351;28;20485;-69
2022/08/14 07:44:10;;;;;;;7.47;6.77;;;26.90;63.10;;;;;;5003176;28;20504;-69
2022/08/14 07:46:36;;;;;;;8.30;7.57;;;27.10;62.60;;;;;;5005626;28;20485;-70
2022/08/14 07:49:04;;;;;;;13.23;7.07;;;27.40;61.30;;;;;;5007810;28;20484;-69
2022/08/14 07:51:32;;;;;;;9.77;7.40;;;27.60;60.90;;;;;;5010640;28;20475;-69
2022/08/14 07:53:59;;;;;;;7.33;6.63;;;27.80;60.80;;;;;;4999724;28;20486;-68
2022/08/14 07:56:26;;;;;;;16.60;8.97;;;28.10;59.90;;;;;;5006193;28;20501;-68
2022/08/14 07:58:53;;;;;;;7.90;7.30;;;28.30;59.20;;;;;;5015508;28;20687;-68
2022/08/14 08:01:20;;;;;;;10.17;9.17;;;28.50;58.80;;;;;;5004143;28;20482;-69
2022/08/14 08:03:48;;;;;;;16.33;6.97;;;28.80;59.20;;;;;;5012896;28;20486;-68
2022/08/14 08:06:16;;;;;;;9.30;6.80;;;29.00;58.90;;;;;;5008347;28;20481;-69
2022/08/14 08:08:47;;;;;;;6.73;6.10;;;29.40;58.30;;;;;;4999044;28;20478;-68
2022/08/14 08:11:15;;;;;;;7.23;6.67;;;29.60;57.40;;;;;;5007941;28;20481;-69
2022/08/14 08:13:42;;;;;;;16.63;6.87;;;29.90;56.20;;;;;;5011038;28;20482;-69
2022/08/14 08:16:09;;;;;;;6.80;6.20;;;30.20;56.60;;;;;;5001342;28;21155;-69
2022/08/14 08:18:36;;;;;;;7.20;6.60;;;30.40;55.40;;;;;;5005376;28;20485;-70
2022/08/14 08:21:03;;;;;;;6.37;5.80;;;30.50;54.60;;;;;;5005824;28;20477;-69
2022/08/14 08:23:32;;;;;;;7.30;6.30;;;30.70;54.20;;;;;;4999670;28;20492;-70
2022/08/14 08:26:00;;;;;;;6.70;6.10;;;30.80;53.50;;;;;;5026685;28;20631;-69
2022/08/14 08:28:28;;;;;;;13.23;8.90;;;30.90;52.70;;;;;;5010067;28;20515;-69
2022/08/14 08:30:56;;;;;;;12.40;5.77;;;31.00;53.30;;;;;;5004110;28;20483;-70
2022/08/14 08:33:26;;;;;;;10.20;8.07;;;31.10;51.90;;;;;;5006648;28;20480;-71
2022/08/14 08:35:55;;;;;;;5.53;5.03;;;31.00;49.40;;;;;;5005831;28;21033;-71
2022/08/14 08:38:26;;;;;;;16.13;6.30;;;31.00;49.50;;;;;;4996933;28;20484;-71
2022/08/14 08:40:55;;;;;;;6.00;5.50;;;31.00;49.70;;;;;;4993122;28;20958;-71
2022/08/14 08:43:24;;;;;;;11.83;10.00;;;;;;;;;;4997411;28;21008;-71
2022/08/14 08:45:55;;;;;;;5.10;4.60;;;31.00;48.40;;;;;;5006384;28;20480;-70
2022/08/14 08:48:22;;;;;;;8.43;7.60;;;30.90;48.30;;;;;;5010207;28;20534;-70
2022/08/14 08:50:49;;;;;;;10.97;6.23;;;31.00;49.00;;;;;;4997118;28;20481;-71
2022/08/14 08:53:16;;;;;;;6.83;6.13;;;31.10;49.60;;;;;;5017238;28;20556;-71
2022/08/14 08:55:44;;;;;;;16.50;5.30;;;30.60;46.70;;;;;;5017774;28;20784;-71
2022/08/14 08:58:14;;;;;;;7.07;6.33;;;30.60;47.60;;;;;;4999199;28;20481;-70
2022/08/14 09:00:46;;;;;;;6.20;5.60;;;30.60;47.50;;;;;;4993726;28;20727;-70
2022/08/14 09:03:16;;;;;;;4.93;4.50;;;30.80;48.50;;;;;;4993573;28;20975;-70
2022/08/14 09:05:51;;;;;;;14.60;4.57;;;30.80;47.30;;;;;;4994743;28;20482;-70
2022/08/14 09:08:19;;;;;;;5.87;5.27;;;31.00;49.30;;;;;;5010222;28;20874;-70
2022/08/14 09:10:47;;;;;;;14.93;5.97;;;31.00;46.60;;;;;;5014833;28;20484;-71
2022/08/14 09:13:14;;;;;;;5.70;5.20;;;31.10;47.50;;;;;;4997994;28;20551;-71
2022/08/14 09:15:45;;;;;;;4.43;4.10;;;31.30;48.10;;;;;;4997638;28;20485;-71
2022/08/14 09:18:13;;;;;;;5.77;5.23;;;31.30;46.90;;;;;;5001730;28;20481;-72
2022/08/14 09:20:41;;;;;;;9.67;6.30;;;31.10;45.80;;;;;;5004267;28;20495;-70
2022/08/14 09:23:09;;;;;;;5.27;4.87;;;30.70;45.40;;;;;;5007047;28;20490;-70
2022/08/14 09:25:37;;;;;;;12.73;5.73;;;30.70;46.80;;;;;;5017089;28;20485;-70
2022/08/14 09:28:05;;;;;;;11.00;4.97;;;30.80;46.60;;;;;;5006250;28;20481;-70
2022/08/14 09:30:33;;;;;;;5.90;5.30;;;31.00;47.70;;;;;;5005539;28;20492;-68
2022/08/14 09:33:26;;;;;;;13.27;4.67;;;31.10;46.20;;;;;;5012107;28;20484;-69
2022/08/14 09:36:10;;;;;;;6.90;6.00;;;31.30;46.00;;;;;;4986093;28;20486;-68
2022/08/14 09:38:46;;;;;;;5.30;4.80;;;31.60;47.10;;;;;;5004675;28;20481;-69
2022/08/14 09:41:23;;;;;;;12.50;4.03;;;31.90;45.60;;;;;;4997425;28;20477;-69
2022/08/14 09:44:04;;;;;;;4.67;4.20;;;32.00;44.70;;;;;;5004854;28;20455;-69
2022/08/14 09:46:31;;;;;;;31.33;6.03;;;32.10;45.10;;;;;;4997984;28;20485;-69
2022/08/14 09:49:00;;;;;;;8.13;7.33;;;31.90;43.60;;;;;;5003585;28;20478;-69
2022/08/14 09:51:28;;;;;;;8.53;7.07;;;31.80;44.20;;;;;;5014889;28;20484;-69
2022/08/14 09:54:05;;;;;;;24.57;4.40;;;32.10;45.10;;;;;;5007054;28;20480;-68
2022/08/14 09:56:44;;;;;;;6.27;4.30;;;32.30;44.90;;;;;;5000194;28;20889;-68
2022/08/14 09:59:13;;;;;;;10.63;3.07;;;32.00;44.00;;;;;;5018443;28;20480;-70
2022/08/14 10:01:42;;;;;;;4.60;4.20;;;32.10;44.70;;;;;;5015655;28;20982;-69
2022/08/14 10:04:20;;;;;;;6.30;4.10;;;32.20;44.50;;;;;;5019490;28;20541;-70
2022/08/14 10:06:47;;;;;;;4.90;4.50;;;32.20;44.50;;;;;;4995454;28;20831;-70
2022/08/14 10:09:14;;;;;;;5.40;4.10;;;32.20;43.60;;;;;;5008831;28;20489;-70
2022/08/14 10:11:54;;;;;;;5.90;3.60;;;32.10;44.00;;;;;;5016133;28;21228;-71
2022/08/14 10:14:23;;;;;;;6.60;4.20;;;31.90;44.00;;;;;;4994427;28;20495;-70
2022/08/14 10:16:53;;;;;;;4.70;4.27;;;;;;;;;;5010227;28;20492;-71
2022/08/14 10:19:23;;;;;;;4.10;3.80;;;32.40;45.10;;;;;;5017435;28;20504;-72
2022/08/14 10:21:59;;;;;;;3.70;3.40;;;32.70;44.70;;;;;;5012428;28;20488;-72
2022/08/14 10:24:30;;;;;;;12.30;4.10;;;32.70;44.50;;;;;;5000576;28;20485;-71
2022/08/14 10:26:58;;;;;;;4.10;3.70;;;32.90;43.70;;;;;;5005831;28;20448;-71
2022/08/14 10:29:33;;;;;;;3.27;3.07;;;33.00;42.20;;;;;;5010536;28;20463;-68
2022/08/14 10:32:01;;;;;;;3.83;3.53;;;33.00;41.90;;;;;;4999709;28;20488;-68
2022/08/14 10:34:34;;;;;;;4.20;3.80;;;33.10;41.30;;;;;;5011112;28;20563;-68
2022/08/14 10:37:07;;;;;;;12.27;3.60;;;33.40;44.10;;;;;;5009833;28;20575;-69
2022/08/14 10:39:36;;;;;;;4.83;3.30;;;33.70;43.30;;;;;;4998086;28;20581;-70
2022/08/14 10:42:04;;;;;;;3.70;3.40;;;;;;;;;;5004291;28;20470;-70
2022/08/14 10:44:34;;;;;;;2.73;2.53;;;33.90;40.90;;;;;;5000824;28;21051;-67
2022/08/14 10:47:06;;;;;;;6.40;3.00;;;33.90;40.80;;;;;;5005133;28;20481;-69
2022/08/14 10:49:35;;;;;;;3.77;3.47;;;34.00;40.90;;;;;;5019054;28;20488;-71
2022/08/14 10:52:05;;;;;;;4.97;3.37;;;34.00;40.60;;;;;;5019753;28;20488;-69
2022/08/14 10:54:39;;;;;;;4.17;3.87;;;34.30;41.90;;;;;;5014141;28;20484;-69
2022/08/14 10:57:20;;;;;;;3.83;3.63;;;34.50;40.40;;;;;;5004322;28;20477;-69
2022/08/14 10:59:54;;;;;;;3.47;3.27;;;34.60;40.00;;;;;;5006413;28;20448;-71
2022/08/14 11:02:30;;;;;;;3.40;3.10;;;34.50;39.20;;;;;;5014922;28;20512;-70
2022/08/14 11:05:04;;;;;;;3.10;2.90;;;34.20;38.90;;;;;;5004720;28;20488;-71
2022/08/14 11:07:31;;;;;;;12.57;3.50;;;34.10;39.60;;;;;;5003665;28;20486;-71
2022/08/14 11:10:03;;;;;;;2.73;2.53;;;34.00;40.10;;;;;;4998697;28;20517;-70
2022/08/14 11:12:45;;;;;;;3.50;3.20;;;34.30;40.10;;;;;;4993502;28;20489;-72
2022/08/14 11:15:12;;;;;;;2.80;2.60;;;34.20;38.00;;;;;;4999138;28;20504;-71
2022/08/14 11:17:39;;;;;;;2.57;2.23;;;34.20;39.50;;;;;;4998342;28;20732;-71
2022/08/14 11:20:10;;;;;;;11.40;2.60;;;34.50;40.30;;;;;;4989512;28;20473;-73
2022/08/14 11:22:40;;;;;;;3.43;3.13;;;33.90;37.50;;;;;;5017601;28;20486;-71
2022/08/14 11:25:10;;;;;;;2.90;2.70;;;33.70;38.50;;;;;;5001830;28;20456;-74
2022/08/14 11:27:39;;;;;;;3.17;2.97;;;33.40;38.80;;;;;;5004638;28;20452;-71
2022/08/14 11:30:08;;;;;;;4.20;2.70;;;33.10;38.60;;;;;;5018458;28;20489;-69
2022/08/14 11:32:37;;;;;;;3.30;3.00;;;33.10;38.70;;;;;;4999929;28;21011;-72
2022/08/14 11:35:05;;;;;;;3.13;2.87;;;33.20;39.70;;;;;;4997861;28;20468;-70
2022/08/14 11:37:33;;;;;;;6.03;4.57;;;33.50;39.90;;;;;;5001382;28;20467;-69
2022/08/14 11:40:00;;;;;;;11.53;3.67;;;33.90;40.80;;;;;;5015609;28;20833;-69
2022/08/14 11:42:28;;;;;;;3.20;2.90;;;33.80;38.50;;;;;;5004105;28;20499;-70
2022/08/14 11:44:58;;;;;;;2.53;2.33;;;33.60;39.00;;;;;;5011897;28;20488;-70
2022/08/14 11:47:25;;;;;;;13.03;3.03;;;33.50;38.50;;;;;;5002173;28;20454;-71
2022/08/14 11:49:52;;;;;;;2.80;2.60;;;33.30;38.70;;;;;;5002778;28;20463;-72
2022/08/14 11:52:19;;;;;;;3.40;3.10;;;33.20;38.50;;;;;;4996370;28;20513;-70
2022/08/14 11:54:59;;;;;;;7.83;2.93;;;33.10;38.20;;;;;;5005845;28;20454;-70
2022/08/14 11:57:26;;;;;;;2.93;2.63;;;32.90;38.20;;;;;;5004636;28;20473;-71
2022/08/14 12:00:01;;;;;;;3.23;2.93;;;32.70;39.20;;;;;;5015679;28;20980;-70
2022/08/14 12:02:28;;;;;;;2.80;2.60;;;32.70;40.30;;;;;;5012533;28;20818;-71
2022/08/14 12:04:55;;;;;;;10.77;3.17;;;32.50;40.20;;;;;;5003404;28;20477;-71
2022/08/14 12:07:22;;;;;;;11.73;3.30;;;32.70;40.20;;;;;;5003559;28;21063;-70
2022/08/14 12:09:55;;;;;;;3.40;3.20;;;32.60;40.10;;;;;;5002742;28;20480;-72
2022/08/14 12:12:24;;;;;;;6.23;2.50;;;32.90;40.20;;;;;;4998835;28;20449;-72
2022/08/14 12:14:55;;;;;;;2.80;2.60;;;32.90;40.40;;;;;;4990639;28;20478;-72
2022/08/14 12:17:22;;;;;;;3.30;3.10;;;32.90;39.60;;;;;;4996998;28;20494;-72
2022/08/14 12:19:51;;;;;;;14.20;2.93;;;32.90;39.60;;;;;;5002460;28;20532;-71
2022/08/14 12:22:18;;;;;;;3.40;3.10;;;32.70;39.30;;;;;;4993784;28;20833;-71
2022/08/14 12:24:51;;;;;;;2.63;2.43;;;32.90;40.40;;;;;;5005473;28;20484;-69
2022/08/14 12:27:19;;;;;;;10.23;2.80;;;33.10;39.60;;;;;;4995396;28;20857;-71
2022/08/14 12:29:53;;;;;;;3.03;2.80;;;33.10;39.40;;;;;;5008934;28;20478;-69
2022/08/14 12:32:20;;;;;;;3.60;3.30;;;33.30;39.10;;;;;;4996780;28;21031;-70
2022/08/14 12:34:54;;;;;;;5.20;3.03;;;33.30;39.40;;;;;;5006503;28;20449;-69
2022/08/14 12:37:29;;;;;;;3.27;2.90;;;33.30;39.70;;;;;;4995263;28;20507;-70
2022/08/14 12:40:08;;;;;;;11.63;3.47;;;33.00;38.30;;;;;;4991113;28;20501;-69
2022/08/14 12:42:36;;;;;;;2.90;2.70;;;32.90;37.90;;;;;;4990958;28;20447;-69
2022/08/14 12:45:03;;;;;;;3.10;2.90;;;32.80;37.00;;;;;;5013924;28;20483;-70
2022/08/14 12:47:31;;;;;;;8.13;2.90;;;32.60;38.40;;;;;;5007225;28;20477;-69
2022/08/14 12:49:58;;;;;;;3.20;3.00;;;32.50;38.80;;;;;;4997633;28;20486;-70
2022/08/14 12:52:30;;;;;;;21.07;3.90;;;32.20;40.20;;;;;;5001539;28;20476;-69
2022/08/14 12:54:59;;;;;;;3.77;3.47;;;32.40;40.50;;;;;;4994673;28;20448;-72
2022/08/14 12:57:36;;;;;;;3.90;3.50;;;32.50;40.40;;;;;;4992186;28;20455;-69
2022/08/14 13:00:13;;;;;;;3.70;3.50;;;32.60;41.10;;;;;;5009121;28;20791;-70
2022/08/14 13:02:41;;;;;;;6.30;3.90;;;32.70;40.50;;;;;;5001111;28;20896;-69
2022/08/14 13:05:09;;;;;;;11.70;3.87;;;32.70;40.60;;;;;;5004232;28;20551;-70
2022/08/14 13:07:39;;;;;;;3.60;3.30;;;32.70;40.10;;;;;;5004787;28;21169;-70